sensor_id;sensor_type;location;lat;lon;timestamp;P1;durP1;ratioP1;P2;durP2;ratioP2
8086;SDS011;4086;54.412;9.980;2023-05-16T00:01:43;6.63;;;4.10;;
8086;SDS011;4086;54.412;9.980;2023-05-16T00:04:10;4.63;;;3.43;;
8086;SDS011;4086;54.412;9.980;2023-05-16T00:06:37;3.70;;;3.40;;
8086;SDS011;4086;54.412;9.980;2023-05-16T00:09:03;3.40;;;3.10;;
8086;SDS011;4086;54.412;9.980;2023-05-16T00:11:31;4.17;;;3.53;;
8086;SDS011;4086;54.412;9.980;2023-05-16T00:13:57;4.43;;;3.90;;
8086;SDS011;4086;54.412;9.980;2023-05-16T00:16:25;4.07;;;3.67;;
8086;SDS011;4086;54.412;9.980;2023-05-16T00:18:53;3.47;;;3.17;;
8086;SDS011;4086;54.412;9.980;2023-05-16T00:21:21;3.90;;;3.60;;
8086;SDS011;4086;54.412;9.980;2023-05-16T00:23:47;6.10;;;3.93;;
8086;SDS011;4086;54.412;9.980;2023-05-16T00:26:14;3.80;;;3.40;;
8086;SDS011;4086;54.412;9.980;2023-05-16T00:28:42;5.07;;;3.40;;
8086;SDS011;4086;54.412;9.980;2023-05-16T00:31:08;4.20;;;3.33;;
8086;SDS011;4086;54.412;9.980;2023-05-16T00:33:35;4.13;;;3.73;;
8086;SDS011;4086;54.412;9.980;2023-05-16T00:36:01;4.23;;;3.83;;
8086;SDS011;4086;54.412;9.980;2023-05-16T00:38:28;4.40;;;3.60;;
8086;SDS011;4086;54.412;9.980;2023-05-16T00:40:54;4.40;;;3.70;;
8086;SDS011;4086;54.412;9.980;2023-05-16T00:43:20;5.10;;;4.20;;
8086;SDS011;4086;54.412;9.980;2023-05-16T00:45:49;5.40;;;3.77;;
8086;SDS011;4086;54.412;9.980;2023-05-16T00:48:15;4.17;;;3.20;;
8086;SDS011;4086;54.412;9.980;2023-05-16T00:50:42;5.03;;;3.60;;
8086;SDS011;4086;54.412;9.980;2023-05-16T00:53:09;5.80;;;3.50;;
8086;SDS011;4086;54.412;9.980;2023-05-16T00:55:36;5.03;;;3.40;;
8086;SDS011;4086;54.412;9.980;2023-05-16T00:58:02;6.43;;;3.80;;
8086;SDS011;4086;54.412;9.980;2023-05-16T01:00:30;6.07;;;3.47;;
8086;SDS011;4086;54.412;9.980;2023-05-16T01:02:57;4.00;;;3.10;;
8086;SDS011;4086;54.412;9.980;2023-05-16T01:05:24;6.67;;;3.20;;
8086;SDS011;4086;54.412;9.980;2023-05-16T01:07:51;6.30;;;3.10;;
8086;SDS011;4086;54.412;9.980;2023-05-16T01:10:17;4.57;;;2.70;;
8086;SDS011;4086;54.412;9.980;2023-05-16T01:12:47;5.57;;;2.50;;
8086;SDS011;4086;54.412;9.980;2023-05-16T01:15:23;5.23;;;2.67;;
8086;SDS011;4086;54.412;9.980;2023-05-16T01:17:52;6.13;;;2.70;;
8086;SDS011;4086;54.412;9.980;2023-05-16T01:20:27;4.83;;;2.60;;
8086;SDS011;4086;54.412;9.980;2023-05-16T01:23:04;5.60;;;2.67;;
8086;SDS011;4086;54.412;9.980;2023-05-16T01:25:38;4.07;;;2.03;;
8086;SDS011;4086;54.412;9.980;2023-05-16T01:28:19;7.73;;;2.70;;
8086;SDS011;4086;54.412;9.980;2023-05-16T01:30:46;6.37;;;2.30;;
8086;SDS011;4086;54.412;9.980;2023-05-16T01:33:12;10.13;;;2.93;;
8086;SDS011;4086;54.412;9.980;2023-05-16T01:35:41;7.10;;;2.40;;
8086;SDS011;4086;54.412;9.980;2023-05-16T01:38:11;5.30;;;2.23;;
8086;SDS011;4086;54.412;9.980;2023-05-16T01:40:44;6.23;;;2.10;;
8086;SDS011;4086;54.412;9.980;2023-05-16T01:43:14;6.73;;;2.47;;
8086;SDS011;4086;54.412;9.980;2023-05-16T01:45:46;5.67;;;2.40;;
8086;SDS011;4086;54.412;9.980;2023-05-16T01:48:16;8.23;;;2.70;;
8086;SDS011;4086;54.412;9.980;2023-05-16T01:50:46;9.13;;;2.77;;
8086;SDS011;4086;54.412;9.980;2023-05-16T01:53:18;8.40;;;2.63;;
8086;SDS011;4086;54.412;9.980;2023-05-16T01:55:50;10.70;;;2.53;;
8086;SDS011;4086;54.412;9.980;2023-05-16T01:58:18;9.23;;;2.67;;
8086;SDS011;4086;54.412;9.980;2023-05-16T02:00:47;5.67;;;2.67;;
8086;SDS011;4086;54.412;9.980;2023-05-16T02:03:13;6.87;;;2.20;;
8086;SDS011;4086;54.412;9.980;2023-05-16T02:05:40;9.27;;;2.40;;
8086;SDS011;4086;54.412;9.980;2023-05-16T02:08:06;5.77;;;2.23;;
8086;SDS011;4086;54.412;9.980;2023-05-16T02:10:34;7.87;;;2.47;;
8086;SDS011;4086;54.412;9.980;2023-05-16T02:13:00;9.30;;;2.43;;
8086;SDS011;4086;54.412;9.980;2023-05-16T02:15:27;7.80;;;2.73;;
8086;SDS011;4086;54.412;9.980;2023-05-16T02:17:55;10.37;;;2.73;;
8086;SDS011;4086;54.412;9.980;2023-05-16T02:20:22;7.80;;;2.63;;
8086;SDS011;4086;54.412;9.980;2023-05-16T02:22:48;7.80;;;2.70;;
8086;SDS011;4086;54.412;9.980;2023-05-16T02:25:15;7.77;;;2.60;;
8086;SDS011;4086;54.412;9.980;2023-05-16T02:27:41;5.70;;;2.23;;
8086;SDS011;4086;54.412;9.980;2023-05-16T02:30:08;12.00;;;3.13;;
8086;SDS011;4086;54.412;9.980;2023-05-16T02:32:35;11.87;;;3.20;;
8086;SDS011;4086;54.412;9.980;2023-05-16T02:35:04;7.57;;;2.37;;
8086;SDS011;4086;54.412;9.980;2023-05-16T02:37:30;13.47;;;2.77;;
8086;SDS011;4086;54.412;9.980;2023-05-16T02:39:57;11.57;;;2.90;;
8086;SDS011;4086;54.412;9.980;2023-05-16T02:42:24;10.70;;;2.90;;
8086;SDS011;4086;54.412;9.980;2023-05-16T02:44:51;9.33;;;2.70;;
8086;SDS011;4086;54.412;9.980;2023-05-16T02:47:17;9.30;;;2.90;;
8086;SDS011;4086;54.412;9.980;2023-05-16T02:49:44;11.83;;;3.27;;
8086;SDS011;4086;54.412;9.980;2023-05-16T02:52:11;11.37;;;2.93;;
8086;SDS011;4086;54.412;9.980;2023-05-16T02:54:38;8.83;;;3.17;;
8086;SDS011;4086;54.412;9.980;2023-05-16T02:57:04;15.10;;;2.60;;
8086;SDS011;4086;54.412;9.980;2023-05-16T02:59:30;12.63;;;2.50;;
8086;SDS011;4086;54.412;9.980;2023-05-16T03:01:57;9.17;;;2.37;;
8086;SDS011;4086;54.412;9.980;2023-05-16T03:04:23;13.50;;;2.87;;
8086;SDS011;4086;54.412;9.980;2023-05-16T03:06:50;11.20;;;2.27;;
8086;SDS011;4086;54.412;9.980;2023-05-16T03:09:17;9.40;;;2.30;;
8086;SDS011;4086;54.412;9.980;2023-05-16T03:11:44;15.47;;;3.30;;
8086;SDS011;4086;54.412;9.980;2023-05-16T03:14:11;10.73;;;2.80;;
8086;SDS011;4086;54.412;9.980;2023-05-16T03:16:37;8.80;;;2.33;;
8086;SDS011;4086;54.412;9.980;2023-05-16T03:19:05;11.17;;;2.87;;
8086;SDS011;4086;54.412;9.980;2023-05-16T03:21:32;8.53;;;2.43;;
8086;SDS011;4086;54.412;9.980;2023-05-16T03:23:58;11.00;;;2.70;;
8086;SDS011;4086;54.412;9.980;2023-05-16T03:26:27;14.00;;;2.63;;
8086;SDS011;4086;54.412;9.980;2023-05-16T03:28:54;7.57;;;2.30;;
8086;SDS011;4086;54.412;9.980;2023-05-16T03:31:20;11.80;;;2.63;;
8086;SDS011;4086;54.412;9.980;2023-05-16T03:33:46;13.40;;;2.87;;
8086;SDS011;4086;54.412;9.980;2023-05-16T03:36:13;16.70;;;3.30;;
8086;SDS011;4086;54.412;9.980;2023-05-16T03:38:39;10.40;;;2.40;;
8086;SDS011;4086;54.412;9.980;2023-05-16T03:41:06;10.07;;;2.67;;
8086;SDS011;4086;54.412;9.980;2023-05-16T03:43:34;10.17;;;2.53;;
8086;SDS011;4086;54.412;9.980;2023-05-16T03:46:01;10.77;;;2.70;;
8086;SDS011;4086;54.412;9.980;2023-05-16T03:48:28;9.90;;;2.80;;
8086;SDS011;4086;54.412;9.980;2023-05-16T03:50:54;13.30;;;2.77;;
8086;SDS011;4086;54.412;9.980;2023-05-16T03:53:21;10.80;;;2.27;;
8086;SDS011;4086;54.412;9.980;2023-05-16T03:55:47;10.43;;;2.57;;
8086;SDS011;4086;54.412;9.980;2023-05-16T03:58:13;8.90;;;2.33;;
8086;SDS011;4086;54.412;9.980;2023-05-16T04:00:41;8.50;;;2.00;;
8086;SDS011;4086;54.412;9.980;2023-05-16T04:03:10;13.77;;;2.60;;
8086;SDS011;4086;54.412;9.980;2023-05-16T04:05:36;12.40;;;2.80;;
8086;SDS011;4086;54.412;9.980;2023-05-16T04:08:02;8.17;;;2.33;;
8086;SDS011;4086;54.412;9.980;2023-05-16T04:10:29;12.27;;;2.47;;
8086;SDS011;4086;54.412;9.980;2023-05-16T04:12:56;9.77;;;2.50;;
8086;SDS011;4086;54.412;9.980;2023-05-16T04:15:22;9.67;;;2.70;;
8086;SDS011;4086;54.412;9.980;2023-05-16T04:17:50;9.37;;;2.10;;
8086;SDS011;4086;54.412;9.980;2023-05-16T04:20:16;11.00;;;2.37;;
8086;SDS011;4086;54.412;9.980;2023-05-16T04:22:43;12.07;;;3.03;;
8086;SDS011;4086;54.412;9.980;2023-05-16T04:25:09;9.57;;;2.20;;
8086;SDS011;4086;54.412;9.980;2023-05-16T04:27:36;9.43;;;2.33;;
8086;SDS011;4086;54.412;9.980;2023-05-16T04:30:03;5.40;;;2.23;;
8086;SDS011;4086;54.412;9.980;2023-05-16T04:32:30;9.77;;;2.70;;
8086;SDS011;4086;54.412;9.980;2023-05-16T04:35:00;16.57;;;2.63;;
8086;SDS011;4086;54.412;9.980;2023-05-16T04:37:27;11.17;;;2.63;;
8086;SDS011;4086;54.412;9.980;2023-05-16T04:39:53;10.17;;;2.37;;
8086;SDS011;4086;54.412;9.980;2023-05-16T04:42:20;13.13;;;2.87;;
8086;SDS011;4086;54.412;9.980;2023-05-16T04:44:46;10.20;;;2.53;;
8086;SDS011;4086;54.412;9.980;2023-05-16T04:47:13;12.27;;;2.60;;
8086;SDS011;4086;54.412;9.980;2023-05-16T04:49:39;11.60;;;2.40;;
8086;SDS011;4086;54.412;9.980;2023-05-16T04:52:07;10.30;;;2.43;;
8086;SDS011;4086;54.412;9.980;2023-05-16T04:54:34;9.47;;;2.53;;
8086;SDS011;4086;54.412;9.980;2023-05-16T04:57:00;10.17;;;2.90;;
8086;SDS011;4086;54.412;9.980;2023-05-16T04:59:26;10.23;;;2.47;;
8086;SDS011;4086;54.412;9.980;2023-05-16T05:01:53;13.33;;;2.83;;
8086;SDS011;4086;54.412;9.980;2023-05-16T05:04:19;6.90;;;2.23;;
8086;SDS011;4086;54.412;9.980;2023-05-16T05:06:46;10.33;;;2.67;;
8086;SDS011;4086;54.412;9.980;2023-05-16T05:09:14;9.57;;;2.47;;
8086;SDS011;4086;54.412;9.980;2023-05-16T05:11:41;12.07;;;2.57;;
8086;SDS011;4086;54.412;9.980;2023-05-16T05:14:07;10.90;;;2.60;;
8086;SDS011;4086;54.412;9.980;2023-05-16T05:16:34;9.47;;;2.40;;
8086;SDS011;4086;54.412;9.980;2023-05-16T05:19:01;11.23;;;2.47;;
8086;SDS011;4086;54.412;9.980;2023-05-16T05:21:27;7.17;;;2.53;;
8086;SDS011;4086;54.412;9.980;2023-05-16T05:23:54;11.27;;;2.33;;
8086;SDS011;4086;54.412;9.980;2023-05-16T05:26:22;7.10;;;2.33;;
8086;SDS011;4086;54.412;9.980;2023-05-16T05:28:50;9.40;;;2.50;;
8086;SDS011;4086;54.412;9.980;2023-05-16T05:31:16;11.73;;;2.87;;
8086;SDS011;4086;54.412;9.980;2023-05-16T05:33:42;14.50;;;2.67;;
8086;SDS011;4086;54.412;9.980;2023-05-16T05:36:09;8.77;;;2.07;;
8086;SDS011;4086;54.412;9.980;2023-05-16T05:38:36;8.77;;;2.23;;
8086;SDS011;4086;54.412;9.980;2023-05-16T05:41:02;10.13;;;2.57;;
8086;SDS011;4086;54.412;9.980;2023-05-16T05:43:30;11.77;;;2.40;;
8086;SDS011;4086;54.412;9.980;2023-05-16T05:45:57;9.77;;;2.23;;
8086;SDS011;4086;54.412;9.980;2023-05-16T05:48:24;7.80;;;2.10;;
8086;SDS011;4086;54.412;9.980;2023-05-16T05:50:50;7.70;;;2.00;;
8086;SDS011;4086;54.412;9.980;2023-05-16T05:53:17;9.00;;;2.23;;
8086;SDS011;4086;54.412;9.980;2023-05-16T05:55:44;11.10;;;2.20;;
8086;SDS011;4086;54.412;9.980;2023-05-16T05:58:11;7.70;;;2.20;;
8086;SDS011;4086;54.412;9.980;2023-05-16T06:00:38;8.63;;;2.20;;
8086;SDS011;4086;54.412;9.980;2023-05-16T06:03:05;5.73;;;1.60;;
8086;SDS011;4086;54.412;9.980;2023-05-16T06:05:31;8.63;;;2.10;;
8086;SDS011;4086;54.412;9.980;2023-05-16T06:07:57;6.50;;;1.90;;
8086;SDS011;4086;54.412;9.980;2023-05-16T06:10:24;6.47;;;1.97;;
8086;SDS011;4086;54.412;9.980;2023-05-16T06:12:52;10.57;;;2.33;;
8086;SDS011;4086;54.412;9.980;2023-05-16T06:15:18;9.67;;;2.10;;
8086;SDS011;4086;54.412;9.980;2023-05-16T06:17:46;8.73;;;2.27;;
8086;SDS011;4086;54.412;9.980;2023-05-16T06:20:13;8.67;;;2.00;;
8086;SDS011;4086;54.412;9.980;2023-05-16T06:22:39;9.97;;;2.07;;
8086;SDS011;4086;54.412;9.980;2023-05-16T06:25:06;4.63;;;1.57;;
8086;SDS011;4086;54.412;9.980;2023-05-16T06:27:33;8.83;;;2.00;;
8086;SDS011;4086;54.412;9.980;2023-05-16T06:29:59;7.33;;;2.07;;
8086;SDS011;4086;54.412;9.980;2023-05-16T06:32:26;9.57;;;2.03;;
8086;SDS011;4086;54.412;9.980;2023-05-16T06:34:54;8.63;;;2.20;;
8086;SDS011;4086;54.412;9.980;2023-05-16T06:37:21;5.57;;;1.63;;
8086;SDS011;4086;54.412;9.980;2023-05-16T06:39:47;9.87;;;2.10;;
8086;SDS011;4086;54.412;9.980;2023-05-16T06:42:14;9.23;;;2.20;;
8086;SDS011;4086;54.412;9.980;2023-05-16T06:44:41;8.80;;;2.10;;
8086;SDS011;4086;54.412;9.980;2023-05-16T06:47:07;5.87;;;1.93;;
8086;SDS011;4086;54.412;9.980;2023-05-16T06:49:34;5.90;;;1.80;;
8086;SDS011;4086;54.412;9.980;2023-05-16T06:52:02;14.10;;;2.37;;
8086;SDS011;4086;54.412;9.980;2023-05-16T06:54:28;5.03;;;1.77;;
8086;SDS011;4086;54.412;9.980;2023-05-16T06:56:55;10.17;;;2.23;;
8086;SDS011;4086;54.412;9.980;2023-05-16T06:59:21;7.57;;;2.10;;
8086;SDS011;4086;54.412;9.980;2023-05-16T07:01:48;9.57;;;1.80;;
8086;SDS011;4086;54.412;9.980;2023-05-16T07:04:14;11.57;;;2.40;;
8086;SDS011;4086;54.412;9.980;2023-05-16T07:06:41;5.83;;;2.17;;
8086;SDS011;4086;54.412;9.980;2023-05-16T07:09:09;9.47;;;2.23;;
8086;SDS011;4086;54.412;9.980;2023-05-16T07:11:36;8.03;;;1.97;;
8086;SDS011;4086;54.412;9.980;2023-05-16T07:14:02;6.23;;;1.80;;
8086;SDS011;4086;54.412;9.980;2023-05-16T07:16:28;10.23;;;2.07;;
8086;SDS011;4086;54.412;9.980;2023-05-16T07:18:55;6.83;;;1.80;;
8086;SDS011;4086;54.412;9.980;2023-05-16T07:21:21;7.00;;;1.80;;
8086;SDS011;4086;54.412;9.980;2023-05-16T07:23:48;8.30;;;2.10;;
8086;SDS011;4086;54.412;9.980;2023-05-16T07:26:16;5.00;;;1.90;;
8086;SDS011;4086;54.412;9.980;2023-05-16T07:28:42;7.37;;;2.03;;
8086;SDS011;4086;54.412;9.980;2023-05-16T07:31:08;9.23;;;2.00;;
8086;SDS011;4086;54.412;9.980;2023-05-16T07:33:35;8.03;;;1.83;;
8086;SDS011;4086;54.412;9.980;2023-05-16T07:36:01;7.73;;;2.10;;
8086;SDS011;4086;54.412;9.980;2023-05-16T07:38:28;7.93;;;1.83;;
8086;SDS011;4086;54.412;9.980;2023-05-16T07:40:55;6.90;;;1.80;;
8086;SDS011;4086;54.412;9.980;2023-05-16T07:43:23;6.33;;;2.10;;
8086;SDS011;4086;54.412;9.980;2023-05-16T07:45:50;7.47;;;1.80;;
8086;SDS011;4086;54.412;9.980;2023-05-16T07:48:16;5.20;;;1.60;;
8086;SDS011;4086;54.412;9.980;2023-05-16T07:50:42;7.77;;;1.83;;
8086;SDS011;4086;54.412;9.980;2023-05-16T07:53:09;7.93;;;1.90;;
8086;SDS011;4086;54.412;9.980;2023-05-16T07:55:35;8.83;;;1.80;;
8086;SDS011;4086;54.412;9.980;2023-05-16T07:58:02;6.30;;;1.70;;
8086;SDS011;4086;54.412;9.980;2023-05-16T08:00:29;7.90;;;1.60;;
8086;SDS011;4086;54.412;9.980;2023-05-16T08:02:56;5.93;;;1.90;;
8086;SDS011;4086;54.412;9.980;2023-05-16T08:05:22;8.20;;;2.00;;
8086;SDS011;4086;54.412;9.980;2023-05-16T08:07:49;5.27;;;1.47;;
8086;SDS011;4086;54.412;9.980;2023-05-16T08:10:16;7.20;;;2.20;;
8086;SDS011;4086;54.412;9.980;2023-05-16T08:12:42;6.70;;;1.80;;
8086;SDS011;4086;54.412;9.980;2023-05-16T08:15:09;7.57;;;2.20;;
8086;SDS011;4086;54.412;9.980;2023-05-16T08:17:37;12.17;;;2.57;;
8086;SDS011;4086;54.412;9.980;2023-05-16T08:20:04;6.67;;;2.00;;
8086;SDS011;4086;54.412;9.980;2023-05-16T08:22:32;9.73;;;2.20;;
8086;SDS011;4086;54.412;9.980;2023-05-16T08:24:58;6.97;;;2.00;;
8086;SDS011;4086;54.412;9.980;2023-05-16T08:27:25;7.47;;;2.00;;
8086;SDS011;4086;54.412;9.980;2023-05-16T08:29:52;10.43;;;2.00;;
8086;SDS011;4086;54.412;9.980;2023-05-16T08:32:18;7.03;;;1.90;;
8086;SDS011;4086;54.412;9.980;2023-05-16T08:34:46;6.40;;;1.70;;
8086;SDS011;4086;54.412;9.980;2023-05-16T08:37:12;5.03;;;1.80;;
8086;SDS011;4086;54.412;9.980;2023-05-16T08:39:38;9.30;;;1.97;;
8086;SDS011;4086;54.412;9.980;2023-05-16T08:42:05;7.47;;;1.87;;
8086;SDS011;4086;54.412;9.980;2023-05-16T08:44:32;6.10;;;2.00;;
8086;SDS011;4086;54.412;9.980;2023-05-16T08:47:01;8.80;;;1.73;;
8086;SDS011;4086;54.412;9.980;2023-05-16T08:49:32;8.03;;;1.90;;
8086;SDS011;4086;54.412;9.980;2023-05-16T08:52:01;9.37;;;2.03;;
8086;SDS011;4086;54.412;9.980;2023-05-16T08:54:28;4.83;;;1.77;;
8086;SDS011;4086;54.412;9.980;2023-05-16T08:56:55;8.60;;;2.10;;
8086;SDS011;4086;54.412;9.980;2023-05-16T08:59:23;8.03;;;2.20;;
8086;SDS011;4086;54.412;9.980;2023-05-16T09:01:49;7.17;;;1.90;;
8086;SDS011;4086;54.412;9.980;2023-05-16T09:04:16;6.10;;;2.07;;
8086;SDS011;4086;54.412;9.980;2023-05-16T09:06:42;8.60;;;1.90;;
8086;SDS011;4086;54.412;9.980;2023-05-16T09:09:10;4.87;;;1.63;;
8086;SDS011;4086;54.412;9.980;2023-05-16T09:11:37;6.10;;;2.00;;
8086;SDS011;4086;54.412;9.980;2023-05-16T09:14:03;6.43;;;1.90;;
8086;SDS011;4086;54.412;9.980;2023-05-16T09:16:30;6.43;;;1.80;;
8086;SDS011;4086;54.412;9.980;2023-05-16T09:18:57;7.03;;;1.67;;
8086;SDS011;4086;54.412;9.980;2023-05-16T09:21:26;9.00;;;2.40;;
8086;SDS011;4086;54.412;9.980;2023-05-16T09:23:53;8.13;;;2.10;;
8086;SDS011;4086;54.412;9.980;2023-05-16T09:26:21;10.00;;;2.50;;
8086;SDS011;4086;54.412;9.980;2023-05-16T09:28:48;7.90;;;2.10;;
8086;SDS011;4086;54.412;9.980;2023-05-16T09:31:18;7.40;;;2.30;;
8086;SDS011;4086;54.412;9.980;2023-05-16T09:33:46;10.13;;;2.43;;
8086;SDS011;4086;54.412;9.980;2023-05-16T09:36:13;11.63;;;2.67;;
8086;SDS011;4086;54.412;9.980;2023-05-16T09:38:40;9.60;;;2.37;;
8086;SDS011;4086;54.412;9.980;2023-05-16T09:41:07;8.37;;;2.10;;
8086;SDS011;4086;54.412;9.980;2023-05-16T09:43:37;6.30;;;1.97;;
8086;SDS011;4086;54.412;9.980;2023-05-16T09:46:03;8.20;;;2.17;;
8086;SDS011;4086;54.412;9.980;2023-05-16T09:48:30;7.67;;;1.90;;
8086;SDS011;4086;54.412;9.980;2023-05-16T09:50:57;9.77;;;2.20;;
8086;SDS011;4086;54.412;9.980;2023-05-16T09:53:28;6.57;;;2.00;;
8086;SDS011;4086;54.412;9.980;2023-05-16T09:56:00;6.10;;;2.20;;
8086;SDS011;4086;54.412;9.980;2023-05-16T09:58:27;7.47;;;1.97;;
8086;SDS011;4086;54.412;9.980;2023-05-16T10:00:56;7.80;;;1.90;;
8086;SDS011;4086;54.412;9.980;2023-05-16T10:03:23;6.53;;;2.30;;
8086;SDS011;4086;54.412;9.980;2023-05-16T10:05:50;8.30;;;2.07;;
8086;SDS011;4086;54.412;9.980;2023-05-16T10:08:18;4.40;;;1.90;;
8086;SDS011;4086;54.412;9.980;2023-05-16T10:10:45;5.73;;;1.90;;
8086;SDS011;4086;54.412;9.980;2023-05-16T10:13:15;8.20;;;2.20;;
8086;SDS011;4086;54.412;9.980;2023-05-16T10:15:42;9.63;;;2.20;;
8086;SDS011;4086;54.412;9.980;2023-05-16T10:18:11;8.77;;;2.60;;
8086;SDS011;4086;54.412;9.980;2023-05-16T10:20:38;9.57;;;2.60;;
8086;SDS011;4086;54.412;9.980;2023-05-16T10:23:07;7.70;;;2.17;;
8086;SDS011;4086;54.412;9.980;2023-05-16T10:25:35;8.40;;;2.57;;
8086;SDS011;4086;54.412;9.980;2023-05-16T10:28:05;8.50;;;2.40;;
8086;SDS011;4086;54.412;9.980;2023-05-16T10:30:32;8.53;;;2.63;;
8086;SDS011;4086;54.412;9.980;2023-05-16T10:32:59;11.57;;;2.90;;
8086;SDS011;4086;54.412;9.980;2023-05-16T10:35:27;10.13;;;2.60;;
8086;SDS011;4086;54.412;9.980;2023-05-16T10:37:54;9.53;;;2.47;;
8086;SDS011;4086;54.412;9.980;2023-05-16T10:40:21;9.77;;;2.40;;
8086;SDS011;4086;54.412;9.980;2023-05-16T10:42:53;5.13;;;2.03;;
8086;SDS011;4086;54.412;9.980;2023-05-16T10:45:21;7.40;;;2.57;;
8086;SDS011;4086;54.412;9.980;2023-05-16T10:47:51;9.20;;;2.47;;
8086;SDS011;4086;54.412;9.980;2023-05-16T10:50:33;9.20;;;2.33;;
8086;SDS011;4086;54.412;9.980;2023-05-16T10:53:14;7.87;;;2.57;;
8086;SDS011;4086;54.412;9.980;2023-05-16T10:55:43;9.17;;;2.13;;
8086;SDS011;4086;54.412;9.980;2023-05-16T10:58:10;8.57;;;2.47;;
8086;SDS011;4086;54.412;9.980;2023-05-16T11:00:38;10.67;;;2.30;;
8086;SDS011;4086;54.412;9.980;2023-05-16T11:03:05;8.43;;;2.10;;
8086;SDS011;4086;54.412;9.980;2023-05-16T11:05:31;8.47;;;2.30;;
8086;SDS011;4086;54.412;9.980;2023-05-16T11:08:03;5.13;;;1.97;;
8086;SDS011;4086;54.412;9.980;2023-05-16T11:10:30;7.57;;;2.47;;
8086;SDS011;4086;54.412;9.980;2023-05-16T11:13:01;11.20;;;2.73;;
8086;SDS011;4086;54.412;9.980;2023-05-16T11:15:30;5.87;;;2.13;;
8086;SDS011;4086;54.412;9.980;2023-05-16T11:18:05;10.57;;;2.70;;
8086;SDS011;4086;54.412;9.980;2023-05-16T11:20:34;6.77;;;2.33;;
8086;SDS011;4086;54.412;9.980;2023-05-16T11:23:17;9.80;;;2.57;;
8086;SDS011;4086;54.412;9.980;2023-05-16T11:25:49;11.03;;;2.87;;
8086;SDS011;4086;54.412;9.980;2023-05-16T11:28:18;10.77;;;2.43;;
8086;SDS011;4086;54.412;9.980;2023-05-16T11:30:45;8.47;;;2.20;;
8086;SDS011;4086;54.412;9.980;2023-05-16T11:33:13;6.10;;;2.07;;
8086;SDS011;4086;54.412;9.980;2023-05-16T11:35:41;7.20;;;2.03;;
8086;SDS011;4086;54.412;9.980;2023-05-16T11:38:11;5.03;;;2.17;;
8086;SDS011;4086;54.412;9.980;2023-05-16T11:40:43;8.83;;;1.63;;
8086;SDS011;4086;54.412;9.980;2023-05-16T11:43:10;8.30;;;1.77;;
8086;SDS011;4086;54.412;9.980;2023-05-16T11:45:43;7.53;;;1.90;;
8086;SDS011;4086;54.412;9.980;2023-05-16T11:48:09;10.37;;;2.30;;
8086;SDS011;4086;54.412;9.980;2023-05-16T11:50:36;8.93;;;2.13;;
8086;SDS011;4086;54.412;9.980;2023-05-16T11:53:04;6.53;;;2.00;;
8086;SDS011;4086;54.412;9.980;2023-05-16T11:55:30;6.07;;;2.00;;
8086;SDS011;4086;54.412;9.980;2023-05-16T11:57:58;8.93;;;2.20;;
8086;SDS011;4086;54.412;9.980;2023-05-16T12:00:25;7.83;;;2.10;;
8086;SDS011;4086;54.412;9.980;2023-05-16T12:02:52;7.53;;;2.30;;
8086;SDS011;4086;54.412;9.980;2023-05-16T12:05:20;9.30;;;2.20;;
8086;SDS011;4086;54.412;9.980;2023-05-16T12:07:49;6.47;;;2.13;;
8086;SDS011;4086;54.412;9.980;2023-05-16T12:10:19;8.33;;;2.37;;
8086;SDS011;4086;54.412;9.980;2023-05-16T12:12:46;8.87;;;2.40;;
8086;SDS011;4086;54.412;9.980;2023-05-16T12:15:13;9.33;;;2.30;;
8086;SDS011;4086;54.412;9.980;2023-05-16T12:17:40;8.87;;;2.10;;
8086;SDS011;4086;54.412;9.980;2023-05-16T12:20:07;7.80;;;2.27;;
8086;SDS011;4086;54.412;9.980;2023-05-16T12:22:38;6.53;;;2.10;;
8086;SDS011;4086;54.412;9.980;2023-05-16T12:27:54;11.00;;;2.47;;
8086;SDS011;4086;54.412;9.980;2023-05-16T12:30:22;6.97;;;2.10;;
8086;SDS011;4086;54.412;9.980;2023-05-16T12:32:54;8.57;;;2.00;;
8086;SDS011;4086;54.412;9.980;2023-05-16T12:35:21;7.93;;;2.23;;
8086;SDS011;4086;54.412;9.980;2023-05-16T12:37:47;10.30;;;2.10;;
8086;SDS011;4086;54.412;9.980;2023-05-16T12:40:15;7.30;;;1.90;;
8086;SDS011;4086;54.412;9.980;2023-05-16T12:42:43;5.87;;;1.97;;
8086;SDS011;4086;54.412;9.980;2023-05-16T12:45:13;7.23;;;2.07;;
8086;SDS011;4086;54.412;9.980;2023-05-16T12:47:41;4.93;;;1.93;;
8086;SDS011;4086;54.412;9.980;2023-05-16T12:50:08;3.90;;;1.47;;
8086;SDS011;4086;54.412;9.980;2023-05-16T12:52:36;6.60;;;2.13;;
8086;SDS011;4086;54.412;9.980;2023-05-16T12:55:03;3.93;;;1.50;;
8086;SDS011;4086;54.412;9.980;2023-05-16T12:57:30;8.00;;;1.97;;
8086;SDS011;4086;54.412;9.980;2023-05-16T12:59:58;8.63;;;1.90;;
8086;SDS011;4086;54.412;9.980;2023-05-16T13:02:24;6.47;;;2.00;;
8086;SDS011;4086;54.412;9.980;2023-05-16T13:04:51;10.80;;;2.40;;
8086;SDS011;4086;54.412;9.980;2023-05-16T13:07:17;6.73;;;1.80;;
8086;SDS011;4086;54.412;9.980;2023-05-16T13:09:43;6.33;;;1.90;;
8086;SDS011;4086;54.412;9.980;2023-05-16T13:12:10;8.77;;;2.30;;
8086;SDS011;4086;54.412;9.980;2023-05-16T13:14:38;7.43;;;1.80;;
8086;SDS011;4086;54.412;9.980;2023-05-16T13:17:05;7.00;;;1.77;;
8086;SDS011;4086;54.412;9.980;2023-05-16T13:19:32;7.57;;;2.10;;
8086;SDS011;4086;54.412;9.980;2023-05-16T13:21:58;9.37;;;2.20;;
8086;SDS011;4086;54.412;9.980;2023-05-16T13:24:24;6.77;;;2.00;;
8086;SDS011;4086;54.412;9.980;2023-05-16T13:26:51;5.10;;;1.33;;
8086;SDS011;4086;54.412;9.980;2023-05-16T13:29:17;2.80;;;1.30;;
8086;SDS011;4086;54.412;9.980;2023-05-16T13:31:44;3.80;;;1.47;;
8086;SDS011;4086;54.412;9.980;2023-05-16T13:34:11;2.53;;;1.37;;
8086;SDS011;4086;54.412;9.980;2023-05-16T13:36:38;4.60;;;1.63;;
8086;SDS011;4086;54.412;9.980;2023-05-16T13:39:04;6.70;;;1.87;;
8086;SDS011;4086;54.412;9.980;2023-05-16T13:41:30;4.97;;;1.80;;
8086;SDS011;4086;54.412;9.980;2023-05-16T13:44:01;8.87;;;2.00;;
8086;SDS011;4086;54.412;9.980;2023-05-16T13:46:28;9.47;;;1.97;;
8086;SDS011;4086;54.412;9.980;2023-05-16T13:48:54;7.23;;;1.83;;
8086;SDS011;4086;54.412;9.980;2023-05-16T13:51:22;5.90;;;1.77;;
8086;SDS011;4086;54.412;9.980;2023-05-16T13:53:48;7.10;;;1.77;;
8086;SDS011;4086;54.412;9.980;2023-05-16T13:56:15;7.70;;;1.90;;
8086;SDS011;4086;54.412;9.980;2023-05-16T13:58:41;6.27;;;2.07;;
8086;SDS011;4086;54.412;9.980;2023-05-16T14:01:08;6.03;;;2.00;;
8086;SDS011;4086;54.412;9.980;2023-05-16T14:03:34;6.50;;;2.00;;
8086;SDS011;4086;54.412;9.980;2023-05-16T14:06:01;8.13;;;2.00;;
8086;SDS011;4086;54.412;9.980;2023-05-16T14:08:29;5.57;;;1.90;;
8086;SDS011;4086;54.412;9.980;2023-05-16T14:10:56;3.97;;;1.90;;
8086;SDS011;4086;54.412;9.980;2023-05-16T14:13:22;6.63;;;1.80;;
8086;SDS011;4086;54.412;9.980;2023-05-16T14:15:49;8.77;;;2.10;;
8086;SDS011;4086;54.412;9.980;2023-05-16T14:18:16;7.07;;;2.00;;
8086;SDS011;4086;54.412;9.980;2023-05-16T14:20:42;7.13;;;2.27;;
8086;SDS011;4086;54.412;9.980;2023-05-16T14:23:09;9.57;;;2.50;;
8086;SDS011;4086;54.412;9.980;2023-05-16T14:25:36;7.73;;;2.67;;
8086;SDS011;4086;54.412;9.980;2023-05-16T14:28:03;7.37;;;2.33;;
8086;SDS011;4086;54.412;9.980;2023-05-16T14:30:29;10.87;;;3.33;;
8086;SDS011;4086;54.412;9.980;2023-05-16T14:32:56;10.80;;;4.00;;
8086;SDS011;4086;54.412;9.980;2023-05-16T14:35:23;9.30;;;2.90;;
8086;SDS011;4086;54.412;9.980;2023-05-16T14:37:50;8.27;;;2.80;;
8086;SDS011;4086;54.412;9.980;2023-05-16T14:40:16;8.57;;;2.70;;
8086;SDS011;4086;54.412;9.980;2023-05-16T14:42:44;7.60;;;2.83;;
8086;SDS011;4086;54.412;9.980;2023-05-16T14:45:10;8.93;;;3.17;;
8086;SDS011;4086;54.412;9.980;2023-05-16T14:47:37;6.23;;;3.10;;
8086;SDS011;4086;54.412;9.980;2023-05-16T14:50:03;8.30;;;3.03;;
8086;SDS011;4086;54.412;9.980;2023-05-16T14:52:31;9.40;;;3.03;;
8086;SDS011;4086;54.412;9.980;2023-05-16T14:54:57;7.07;;;2.97;;
8086;SDS011;4086;54.412;9.980;2023-05-16T14:57:23;7.87;;;2.80;;
8086;SDS011;4086;54.412;9.980;2023-05-16T14:59:51;10.17;;;2.80;;
8086;SDS011;4086;54.412;9.980;2023-05-16T15:02:17;7.40;;;2.77;;
8086;SDS011;4086;54.412;9.980;2023-05-16T15:04:44;8.77;;;2.80;;
8086;SDS011;4086;54.412;9.980;2023-05-16T15:07:11;10.40;;;3.17;;
8086;SDS011;4086;54.412;9.980;2023-05-16T15:09:37;9.33;;;2.97;;
8086;SDS011;4086;54.412;9.980;2023-05-16T15:12:04;7.27;;;2.70;;
8086;SDS011;4086;54.412;9.980;2023-05-16T15:14:31;6.97;;;2.60;;
8086;SDS011;4086;54.412;9.980;2023-05-16T15:16:59;8.00;;;2.83;;